Ekwok, AK (99580)

5:09 AM AKDT on August 21, 2014 (GMT -0800)
New Stuyahok AP, New Stuyahok | Change Station
CLOSE
Current Station
Airport
Location: New Stuyahok AP, New Stuyahok,
Elevation: 302 ft
Nearby Weather Stations

Elev 302 ft 59.45 °N, 157.33 °W | Updated 13 minutes ago

Mostly Cloudy
Mostly Cloudy
51 °F
Feels Like 51 °F
N
8
Wind Variable Wind from North

Today
High -- | Low -- °F
--% Chance of Precip.
Yesterday
High -- | Low -- °F
Precip. -- in
7:02 AM 10:03 PM
Waning Crescent, 14% visible
Pressure 30.14 in
Visibility 10.0 miles
Clouds Mostly Cloudy 8000 ft
Dew Point 47 °F
Humidity 86%
Rainfall 0.00 in
Snow Depth Not available.
UV 0 out of 12
Pollen Not available.
Air Quality Not available.
Flu Activity Not available.
METAR PANW 211256Z AUTO 36007KT 10SM BKN080 11/08 A3020 RMK AO2 TSNO T01050083 SLP204 $

More Conditions Fewer Conditions

Pressure 30.14 in
Visibility 10.0 miles
Clouds Mostly Cloudy 8000 ft
Dew Point 47 °F
Humidity 86%
Rainfall 0.00 in
Snow Depth Not available.
UV 0 out of 12
Pollen Not available.
Air Quality Not available.
Flu Activity Not available.
METAR PANW 211256Z AUTO 36007KT 10SM BKN080 11/08 A3020 RMK AO2 TSNO T01050083 SLP204 $

More Conditions Fewer Conditions

10-Day Weather Forecast

Almanac

Astronomy

Aug. 21, 2014 Rise Set
Actual Time 7:02 AM AKDT 10:03 PM AKDT
Civil Twilight 6:14 AM AKDT 10:50 PM AKDT
Nautical Twilight 5:09 AM AKDT 11:54 PM AKDT
Astronomical Twilight 3:18 AM AKDT 1:37 AM AKDT
Moon 3:17 AM AKDT 7:59 PM AKDT
Length of Visible Light 16h 35m
Length of Day
15h 00m
Tomorrow will be 5m 8s shorter.
Waning Crescent, 14% of the Moon is Illuminated
Today
Waning Crescent
Aug 25
New
Sep 2
First Quarter
Sep 8
Full
Sep 15
Last Quarter

Today's Extremes

State Highs State Lows

Community

WunderPhotos

Upload Photos

1,745,905 photos uploaded!

WunderBlogs® & News

By Dr. Jeff Masters
Director of Meteorology, Weather Underground
By Kari Strenfel
Meteorologist, Weather Underground
By Christopher C. Burt
Weather Historian, Weather Underground
August 21, 2014
August 21, 2014
August 21, 2014

Nearby

Snow Depth

Station Depth Elevation
Port Graham 0 in 300 ft
Mcneil Canyon 1 in 1320 ft
MF Bradley River 4 in 2300 ft
Nuka Glacier 164 in 1250 ft
Cooper Lake 37 in 1200 ft

Earthquake Activity

City Distance Mag. Time & Date
No recent earthquake activity has been reported nearby.
Minimum magnitude displayed is 2.5.

Coastal Water Temperatures

Place Temperature
No Stations Reporting

Nearby Weather Stations